createdAt,value
2022-10-16T00:01:57.698Z,3.20
2022-10-16T00:04:37.912Z,3.30
2022-10-16T00:07:17.418Z,2.80
2022-10-16T00:09:53.413Z,3.10
2022-10-16T00:12:39.416Z,3.15
2022-10-16T00:15:16.003Z,2.55
2022-10-16T00:18:02.353Z,2.95
2022-10-16T00:20:44.344Z,3.15
2022-10-16T00:23:26.577Z,3.05
2022-10-16T00:26:02.588Z,3.13
2022-10-16T00:28:42.881Z,2.78
2022-10-16T00:31:18.952Z,2.80
2022-10-16T00:33:50.729Z,2.33
2022-10-16T00:36:20.583Z,2.92
2022-10-16T00:38:49.238Z,2.83
2022-10-16T00:41:19.595Z,2.38
2022-10-16T00:43:50.357Z,2.78
2022-10-16T00:46:23.205Z,2.40
2022-10-16T00:48:58.278Z,3.05
2022-10-16T00:51:30.133Z,2.72
2022-10-16T00:53:58.721Z,2.42
2022-10-16T00:56:40.655Z,2.15
2022-10-16T00:59:26.495Z,1.88
2022-10-16T01:02:15.620Z,2.50
2022-10-16T01:05:03.776Z,2.05
2022-10-16T01:07:41.424Z,2.50
2022-10-16T01:10:33.496Z,2.28
2022-10-16T01:13:28.049Z,2.65
2022-10-16T01:16:18.217Z,1.90
2022-10-16T01:18:48.620Z,2.63
2022-10-16T01:21:20.060Z,2.33
2022-10-16T01:23:58.599Z,2.65
2022-10-16T01:26:33.587Z,1.90
2022-10-16T01:29:16.363Z,2.10
2022-10-16T01:31:46.839Z,2.38
2022-10-16T01:34:21.008Z,1.73
2022-10-16T01:36:51.971Z,2.38
2022-10-16T01:39:23.783Z,2.00
2022-10-16T01:41:57.102Z,1.77
2022-10-16T01:44:27.902Z,2.20
2022-10-16T01:46:57.203Z,2.00
2022-10-16T01:49:45.074Z,2.20
2022-10-16T01:52:34.045Z,2.30
2022-10-16T01:55:24.362Z,2.92
2022-10-16T01:58:12.192Z,2.20
2022-10-16T02:00:59.980Z,2.50
2022-10-16T02:03:48.728Z,1.90
2022-10-16T02:06:36.855Z,2.50
2022-10-16T02:09:24.692Z,2.00
2022-10-16T02:11:56.831Z,2.53
2022-10-16T02:14:27.322Z,2.40
2022-10-16T02:16:56.857Z,2.08
2022-10-16T02:19:26.114Z,1.83
2022-10-16T02:22:06.204Z,2.13
2022-10-16T02:24:49.283Z,2.10
2022-10-16T02:27:25.900Z,1.83
2022-10-16T02:29:59.728Z,1.67
2022-10-16T02:32:42.988Z,2.20
2022-10-16T02:35:22.486Z,2.05
2022-10-16T02:38:02.905Z,2.45
2022-10-16T02:40:44.336Z,2.10
2022-10-16T02:43:27.281Z,2.10
2022-10-16T02:46:05.717Z,2.20
2022-10-16T02:48:43.305Z,2.15
2022-10-16T02:51:19.198Z,2.17
2022-10-16T02:53:47.651Z,2.42
2022-10-16T02:56:15.814Z,2.08
2022-10-16T02:58:44.677Z,1.67
2022-10-16T03:01:15.399Z,2.50
2022-10-16T03:03:50.619Z,1.73
2022-10-16T03:06:28.591Z,2.33
2022-10-16T03:09:06.077Z,2.03
2022-10-16T03:11:45.955Z,2.20
2022-10-16T03:14:24.180Z,2.22
2022-10-16T03:17:04.305Z,1.95
2022-10-16T03:19:43.021Z,2.10
2022-10-16T03:22:21.861Z,1.55
2022-10-16T03:24:57.732Z,1.95
2022-10-16T03:27:33.776Z,2.20
2022-10-16T03:30:11.033Z,1.80
2022-10-16T03:32:58.824Z,2.38
2022-10-16T03:35:36.911Z,2.05
2022-10-16T03:38:15.703Z,2.00
2022-10-16T03:40:53.707Z,1.52
2022-10-16T03:43:30.302Z,2.10
2022-10-16T03:46:05.748Z,2.28
2022-10-16T03:48:44.670Z,1.63
2022-10-16T03:51:20.894Z,1.80
2022-10-16T03:53:57.055Z,2.17
2022-10-16T03:56:40.788Z,2.20
2022-10-16T03:59:09.281Z,1.92
2022-10-16T04:01:37.761Z,2.10
2022-10-16T04:04:06.477Z,1.90
2022-10-16T04:06:37.702Z,1.70
2022-10-16T04:09:06.970Z,2.10
2022-10-16T04:11:46.375Z,2.20
2022-10-16T04:14:27.515Z,1.60
2022-10-16T04:17:06.905Z,1.60
2022-10-16T04:19:45.731Z,1.85
2022-10-16T04:22:24.026Z,1.92
2022-10-16T04:25:00.677Z,2.35
2022-10-16T04:27:43.581Z,1.80
2022-10-16T04:30:24.755Z,2.00
2022-10-16T04:33:10.718Z,1.83
2022-10-16T04:35:49.974Z,1.80
2022-10-16T04:38:26.493Z,2.08
2022-10-16T04:41:06.444Z,1.90
2022-10-16T04:43:46.680Z,1.80
2022-10-16T04:46:22.984Z,1.67
2022-10-16T04:49:01.092Z,1.70
2022-10-16T04:51:38.457Z,2.08
2022-10-16T04:54:16.927Z,1.55
2022-10-16T04:56:54.705Z,2.15
2022-10-16T04:59:35.824Z,1.63
2022-10-16T05:02:12.656Z,1.90
2022-10-16T05:04:41.718Z,1.95
2022-10-16T05:07:10.126Z,1.67
2022-10-16T05:09:38.497Z,1.60
2022-10-16T05:12:06.990Z,1.48
2022-10-16T05:14:38.013Z,1.67
2022-10-16T05:17:07.220Z,1.83
2022-10-16T05:19:36.208Z,1.95
2022-10-16T05:22:04.514Z,1.83
2022-10-16T05:24:35.307Z,1.92
2022-10-16T05:27:03.663Z,1.90
2022-10-16T05:29:38.436Z,1.77
2022-10-16T05:32:17.808Z,1.73
2022-10-16T05:34:56.489Z,1.50
2022-10-16T05:37:34.651Z,1.80
2022-10-16T05:40:05.884Z,1.65
2022-10-16T05:42:38.593Z,1.80
2022-10-16T05:45:08.428Z,1.75
2022-10-16T05:50:20.832Z,2.00
2022-10-16T05:53:00.381Z,1.60
2022-10-16T05:55:28.847Z,1.80
2022-10-16T05:57:58.804Z,1.70
2022-10-16T06:00:27.985Z,1.73
2022-10-16T06:03:15.672Z,1.50
2022-10-16T06:05:50.190Z,2.67
2022-10-16T06:08:26.284Z,1.70
2022-10-16T06:11:09.166Z,1.50
2022-10-16T06:13:39.870Z,1.92
2022-10-16T06:16:09.674Z,1.58
2022-10-16T06:18:39.501Z,1.70
2022-10-16T06:21:20.681Z,1.65
2022-10-16T06:24:00.154Z,1.65
2022-10-16T06:26:39.365Z,1.90
2022-10-16T06:29:16.440Z,1.80
2022-10-16T06:31:53.975Z,3.17
2022-10-16T06:34:31.421Z,2.08
2022-10-16T06:37:08.033Z,1.90
2022-10-16T06:39:46.180Z,2.00
2022-10-16T06:42:23.352Z,1.75
2022-10-16T06:45:02.812Z,1.80
2022-10-16T06:47:45.148Z,1.60
2022-10-16T06:50:22.191Z,1.88
2022-10-16T06:53:02.756Z,2.20
2022-10-16T06:55:39.982Z,1.98
2022-10-16T06:58:20.999Z,1.70
2022-10-16T07:00:58.925Z,1.85
2022-10-16T07:03:41.142Z,1.90
2022-10-16T07:06:11.452Z,2.22
2022-10-16T07:08:42.045Z,2.10
2022-10-16T07:11:12.306Z,2.13
2022-10-16T07:13:42.163Z,1.73
2022-10-16T07:16:14.750Z,1.77
2022-10-16T07:18:46.071Z,1.60
2022-10-16T07:21:15.944Z,2.08
2022-10-16T07:23:45.645Z,1.90
2022-10-16T07:26:14.622Z,1.92
2022-10-16T07:28:44.934Z,2.33
2022-10-16T07:31:15.896Z,1.90
2022-10-16T07:33:46.543Z,2.13
2022-10-16T07:36:26.549Z,1.50
2022-10-16T07:39:05.145Z,2.10
2022-10-16T07:41:45.884Z,2.30
2022-10-16T07:44:23.890Z,2.10
2022-10-16T07:47:00.386Z,2.10
2022-10-16T07:49:37.418Z,2.38
2022-10-16T07:52:13.334Z,2.03
2022-10-16T07:54:52.739Z,2.33
2022-10-16T07:57:21.904Z,2.28
2022-10-16T07:59:50.455Z,1.90
2022-10-16T08:02:19.817Z,2.58
2022-10-16T08:04:48.857Z,1.80
2022-10-16T08:07:17.514Z,2.63
2022-10-16T08:09:57.507Z,2.45
2022-10-16T08:12:39.996Z,1.77
2022-10-16T08:15:22.347Z,2.00
2022-10-16T08:18:05.052Z,1.70
2022-10-16T08:20:35.194Z,2.03
2022-10-16T08:23:04.583Z,1.80
2022-10-16T08:25:33.608Z,2.10
2022-10-16T08:28:01.886Z,2.60
2022-10-16T08:30:33.185Z,2.30
2022-10-16T08:33:16.407Z,1.55
2022-10-16T08:35:46.925Z,1.60
2022-10-16T08:38:16.995Z,2.60
2022-10-16T08:40:48.553Z,4.15
2022-10-16T08:43:35.051Z,1.63
2022-10-16T08:46:18.166Z,1.20
2022-10-16T08:49:00.518Z,1.13
2022-10-16T08:51:30.396Z,1.00
2022-10-16T08:54:07.168Z,1.13
2022-10-16T08:56:46.760Z,1.10
2022-10-16T09:02:18.376Z,1.30
2022-10-16T09:05:01.047Z,1.00
2022-10-16T09:07:57.012Z,1.05
2022-10-16T09:10:37.856Z,1.20
2022-10-16T09:13:19.754Z,1.20
2022-10-16T09:15:55.547Z,2.35
2022-10-16T09:18:32.796Z,7.43
2022-10-16T09:21:04.338Z,1.52
2022-10-16T09:23:36.109Z,0.95
2022-10-16T09:26:05.914Z,1.00
2022-10-16T09:28:34.555Z,1.00
2022-10-16T09:31:02.843Z,1.70
2022-10-16T09:33:38.524Z,0.90
2022-10-16T09:36:07.802Z,1.25
2022-10-16T09:38:50.733Z,0.80
2022-10-16T09:41:32.259Z,0.82
2022-10-16T09:44:18.307Z,1.17
2022-10-16T09:47:14.255Z,1.00
2022-10-16T09:50:02.845Z,0.80
2022-10-16T09:52:50.172Z,1.05
2022-10-16T09:55:25.764Z,0.82
2022-10-16T09:58:03.937Z,1.17
2022-10-16T10:00:43.342Z,2.95
2022-10-16T10:03:40.940Z,1.50
2022-10-16T10:06:25.721Z,0.68
2022-10-16T10:09:15.910Z,0.60
2022-10-16T10:11:44.461Z,0.70
2022-10-16T10:14:20.613Z,0.68
2022-10-16T10:16:49.568Z,0.65
2022-10-16T10:19:32.753Z,0.73
2022-10-16T10:22:20.342Z,0.50
2022-10-16T10:24:59.713Z,0.50
2022-10-16T10:27:56.850Z,0.50
2022-10-16T10:30:27.288Z,0.50
2022-10-16T10:32:58.661Z,0.52
2022-10-16T10:35:44.381Z,0.57
2022-10-16T10:38:38.608Z,0.77
2022-10-16T10:41:17.894Z,0.63
2022-10-16T10:44:01.028Z,0.50
2022-10-16T10:46:34.406Z,0.40
2022-10-16T10:49:02.294Z,0.63
2022-10-16T10:51:30.649Z,0.50
2022-10-16T10:54:22.172Z,0.50
2022-10-16T10:57:04.708Z,0.60
2022-10-16T10:59:33.199Z,0.40
2022-10-16T11:02:33.614Z,0.75
2022-10-16T11:05:25.136Z,0.63
2022-10-16T11:08:04.350Z,0.77
2022-10-16T11:10:55.310Z,0.68
2022-10-16T11:13:51.014Z,0.77
2022-10-16T11:16:37.672Z,0.82
2022-10-16T11:19:27.865Z,2.70
2022-10-16T11:22:15.039Z,1.52
2022-10-16T11:25:10.798Z,0.60
2022-10-16T11:28:14.048Z,0.57
2022-10-16T11:31:01.206Z,0.63
2022-10-16T11:33:42.240Z,0.43
2022-10-16T11:36:21.997Z,0.60
2022-10-16T11:39:13.855Z,0.68
2022-10-16T11:41:49.285Z,0.50
2022-10-16T11:44:44.297Z,0.70
2022-10-16T11:50:31.388Z,0.57
2022-10-16T11:53:25.320Z,0.50
2022-10-16T11:55:53.736Z,0.90
2022-10-16T11:58:31.881Z,0.45
2022-10-16T12:01:11.073Z,0.45
2022-10-16T12:04:08.206Z,0.63
2022-10-16T12:06:50.974Z,0.80
2022-10-16T12:09:32.480Z,0.50
2022-10-16T12:12:01.012Z,0.40
2022-10-16T12:15:04.023Z,0.45
2022-10-16T12:17:40.578Z,0.47
2022-10-16T12:20:20.550Z,0.50
2022-10-16T12:23:06.893Z,0.60
2022-10-16T12:25:56.300Z,0.30
2022-10-16T12:28:37.418Z,1.00
2022-10-16T12:31:14.174Z,0.95
2022-10-16T12:33:44.684Z,0.55
2022-10-16T12:36:20.108Z,0.90
2022-10-16T12:38:52.574Z,0.50
2022-10-16T12:41:27.161Z,0.70
2022-10-16T12:44:03.747Z,0.63
2022-10-16T12:46:45.029Z,0.60
2022-10-16T12:49:30.351Z,0.88
2022-10-16T12:51:58.835Z,0.93
2022-10-16T12:54:26.941Z,1.00
2022-10-16T12:57:01.797Z,0.70
2022-10-16T12:59:34.157Z,0.43
2022-10-16T13:02:11.240Z,1.20
2022-10-16T13:04:54.933Z,0.77
2022-10-16T13:07:42.484Z,0.70
2022-10-16T13:10:21.358Z,0.50
2022-10-16T13:12:58.434Z,3.72
2022-10-16T13:15:38.137Z,1.33
2022-10-16T13:18:15.650Z,0.50
2022-10-16T13:20:46.883Z,0.30
2022-10-16T13:23:29.105Z,0.28
2022-10-16T13:26:19.036Z,0.73
2022-10-16T13:29:01.155Z,1.00
2022-10-16T13:31:40.101Z,0.47
2022-10-16T13:34:16.549Z,0.35
2022-10-16T13:36:56.701Z,0.30
2022-10-16T13:39:32.498Z,0.40
2022-10-16T13:44:51.869Z,0.38
2022-10-16T13:47:21.442Z,0.60
2022-10-16T13:50:01.280Z,0.57
2022-10-16T13:52:32.665Z,0.30
2022-10-16T13:55:16.886Z,0.50
2022-10-16T13:58:06.176Z,0.50
2022-10-16T14:01:15.083Z,0.40
2022-10-16T14:04:02.349Z,0.50
2022-10-16T14:06:44.152Z,0.55
2022-10-16T14:09:31.677Z,0.50
2022-10-16T14:12:13.165Z,0.40
2022-10-16T14:14:56.257Z,0.30
2022-10-16T14:17:30.288Z,1.38
2022-10-16T14:25:03.347Z,3.22
2022-10-16T14:28:09.793Z,0.73
2022-10-16T14:30:53.713Z,0.90
2022-10-16T14:33:36.587Z,0.80
2022-10-16T14:36:17.653Z,0.80
2022-10-16T14:38:58.728Z,0.55
2022-10-16T14:41:28.176Z,1.00
2022-10-16T14:43:58.333Z,1.60
2022-10-16T14:46:40.289Z,1.25
2022-10-16T14:49:12.484Z,0.60
2022-10-16T14:51:42.915Z,0.52
2022-10-16T14:54:13.864Z,0.50
2022-10-16T14:56:48.683Z,0.70
2022-10-16T14:59:30.892Z,0.75
2022-10-16T15:02:28.867Z,0.80
2022-10-16T15:05:19.035Z,0.80
2022-10-16T15:07:58.604Z,0.50
2022-10-16T15:10:39.516Z,0.60
2022-10-16T15:13:16.950Z,2.22
2022-10-16T15:15:56.548Z,0.52
2022-10-16T15:18:40.062Z,0.77
2022-10-16T15:21:13.183Z,0.80
2022-10-16T15:23:44.218Z,0.60
2022-10-16T15:26:13.588Z,0.80
2022-10-16T15:28:42.779Z,0.50
2022-10-16T15:31:23.388Z,0.50
2022-10-16T15:34:05.152Z,0.88
2022-10-16T15:36:45.189Z,1.92
2022-10-16T15:39:22.666Z,0.75
2022-10-16T15:41:52.140Z,0.93
2022-10-16T15:44:23.928Z,1.33
2022-10-16T15:46:52.614Z,0.75
2022-10-16T15:49:20.866Z,0.90
2022-10-16T15:51:49.983Z,1.15
2022-10-16T15:54:30.368Z,1.13
2022-10-16T15:57:03.917Z,1.20
2022-10-16T15:59:44.841Z,0.82
2022-10-16T16:02:22.637Z,1.05
2022-10-16T16:04:51.538Z,1.38
2022-10-16T16:07:19.853Z,1.45
2022-10-16T16:09:49.530Z,1.30
2022-10-16T16:12:18.168Z,1.00
2022-10-16T16:14:49.713Z,1.17
2022-10-16T16:17:37.439Z,1.00
2022-10-16T16:20:17.489Z,1.48
2022-10-16T16:22:58.941Z,0.98
2022-10-16T16:25:38.269Z,1.10
2022-10-16T16:28:15.220Z,2.53
2022-10-16T16:30:55.781Z,1.30
2022-10-16T16:33:37.620Z,1.52
2022-10-16T16:36:15.980Z,2.88
2022-10-16T16:38:44.920Z,1.70
2022-10-16T16:41:17.729Z,1.50
2022-10-16T16:43:46.268Z,1.15
2022-10-16T16:46:14.668Z,1.48
2022-10-16T16:48:43.705Z,1.60
2022-10-16T16:51:22.688Z,2.28
2022-10-16T16:53:53.237Z,2.25
2022-10-16T16:56:22.351Z,1.88
2022-10-16T16:58:51.335Z,2.72
2022-10-16T17:01:29.769Z,2.92
2022-10-16T17:04:08.849Z,2.00
2022-10-16T17:06:49.443Z,2.25
2022-10-16T17:09:26.110Z,1.50
2022-10-16T17:12:03.211Z,2.15
2022-10-16T17:14:33.675Z,1.50
2022-10-16T17:17:02.135Z,1.50
2022-10-16T17:19:31.683Z,1.45
2022-10-16T17:24:36.729Z,1.58
2022-10-16T17:27:06.174Z,1.40
2022-10-16T17:29:35.020Z,1.40
2022-10-16T17:32:04.009Z,1.70
2022-10-16T17:34:44.456Z,1.63
2022-10-16T17:37:21.461Z,1.50
2022-10-16T17:39:59.205Z,1.60
2022-10-16T17:42:29.107Z,1.70
2022-10-16T17:44:57.837Z,2.25
2022-10-16T17:47:26.255Z,1.65
2022-10-16T17:49:57.003Z,1.50
2022-10-16T17:52:27.079Z,1.60
2022-10-16T17:55:05.354Z,1.40
2022-10-16T17:57:50.171Z,1.38
2022-10-16T18:00:23.992Z,0.95
2022-10-16T18:03:05.584Z,0.90
2022-10-16T18:05:46.182Z,1.20
2022-10-16T18:08:27.947Z,1.10
2022-10-16T18:11:07.440Z,1.10
2022-10-16T18:13:49.512Z,1.40
2022-10-16T18:16:18.117Z,1.30
2022-10-16T18:18:47.998Z,1.50
2022-10-16T18:21:17.832Z,1.10
2022-10-16T18:23:50.884Z,1.27
2022-10-16T18:26:28.333Z,1.42
2022-10-16T18:29:10.908Z,1.00
2022-10-16T18:31:50.978Z,0.93
2022-10-16T18:34:30.605Z,0.98
2022-10-16T18:36:59.738Z,1.10
2022-10-16T18:39:28.726Z,0.80
2022-10-16T18:41:59.788Z,1.00
2022-10-16T18:44:31.319Z,0.90
2022-10-16T18:47:02.890Z,1.00
2022-10-16T18:49:34.026Z,0.90
2022-10-16T18:52:03.408Z,1.50
2022-10-16T18:54:32.921Z,1.00
2022-10-16T18:57:03.168Z,1.00
2022-10-16T18:59:43.521Z,0.85
2022-10-16T19:02:24.706Z,1.30
2022-10-16T19:05:06.399Z,0.80
2022-10-16T19:07:50.611Z,1.77
2022-10-16T19:10:25.886Z,3.05
2022-10-16T19:13:11.080Z,14.80
2022-10-16T19:15:58.040Z,2.28
2022-10-16T19:18:28.196Z,1.45
2022-10-16T19:20:57.021Z,1.40
2022-10-16T19:23:25.465Z,1.52
2022-10-16T19:25:53.929Z,1.50
2022-10-16T19:28:23.725Z,1.33
2022-10-16T19:31:06.871Z,1.58
2022-10-16T19:33:55.003Z,1.75
2022-10-16T19:36:37.236Z,1.30
2022-10-16T19:42:05.624Z,1.08
2022-10-16T19:44:50.036Z,1.55
2022-10-16T19:47:28.113Z,1.67
2022-10-16T19:50:09.808Z,1.88
2022-10-16T19:52:53.081Z,1.88
2022-10-16T19:55:32.084Z,1.83
2022-10-16T19:58:10.789Z,1.42
2022-10-16T20:00:51.013Z,1.85
2022-10-16T20:03:36.527Z,2.00
2022-10-16T20:06:06.844Z,1.65
2022-10-16T20:08:36.661Z,1.75
2022-10-16T20:11:06.010Z,1.90
2022-10-16T20:13:39.858Z,2.30
2022-10-16T20:16:12.940Z,1.58
2022-10-16T20:18:43.679Z,1.85
2022-10-16T20:21:12.686Z,2.80
2022-10-16T20:23:41.855Z,2.40
2022-10-16T20:26:12.138Z,2.10
2022-10-16T20:28:45.600Z,1.92
2022-10-16T20:31:18.256Z,1.80
2022-10-16T20:33:53.794Z,2.03
2022-10-16T20:36:23.323Z,2.25
2022-10-16T20:38:54.071Z,1.65
2022-10-16T20:41:22.470Z,1.67
2022-10-16T20:43:51.541Z,2.00
2022-10-16T20:46:21.752Z,1.70
2022-10-16T20:48:51.792Z,2.50
2022-10-16T20:51:24.976Z,2.13
2022-10-16T20:53:57.462Z,2.20
2022-10-16T20:56:29.953Z,2.08
2022-10-16T20:58:59.932Z,2.10
2022-10-16T21:01:29.971Z,2.20
2022-10-16T21:04:01.645Z,2.63
2022-10-16T21:06:32.163Z,2.13
2022-10-16T21:09:03.369Z,2.50
2022-10-16T21:11:35.327Z,2.50
2022-10-16T21:14:04.853Z,3.05
2022-10-16T21:16:34.387Z,2.47
2022-10-16T21:19:04.067Z,2.85
2022-10-16T21:21:34.478Z,2.50
2022-10-16T21:24:03.189Z,2.42
2022-10-16T21:26:33.308Z,2.60
2022-10-16T21:29:04.017Z,2.40
2022-10-16T21:31:33.249Z,2.78
2022-10-16T21:34:02.601Z,3.10
2022-10-16T21:36:34.828Z,3.42
2022-10-16T21:39:07.493Z,2.95
2022-10-16T21:41:36.906Z,2.97
2022-10-16T21:44:06.803Z,3.00
2022-10-16T21:46:36.603Z,3.08
2022-10-16T21:49:08.598Z,3.28
2022-10-16T21:51:39.711Z,3.20
2022-10-16T21:54:11.757Z,3.20
2022-10-16T21:56:40.585Z,3.75
2022-10-16T21:59:12.449Z,3.65
2022-10-16T22:01:41.611Z,3.75
2022-10-16T22:04:14.575Z,3.88
2022-10-16T22:06:46.310Z,3.72
2022-10-16T22:09:15.924Z,3.92
2022-10-16T22:11:46.136Z,4.40
2022-10-16T22:14:16.797Z,3.58
2022-10-16T22:16:45.095Z,3.63
2022-10-16T22:19:14.025Z,4.30
2022-10-16T22:21:43.212Z,4.68
2022-10-16T22:24:12.728Z,4.97
2022-10-16T22:26:41.432Z,4.63
2022-10-16T22:29:14.820Z,4.88
2022-10-16T22:31:44.213Z,4.57
2022-10-16T22:34:14.709Z,4.25
2022-10-16T22:36:43.356Z,5.22
2022-10-16T22:39:12.730Z,5.32
2022-10-16T22:41:41.640Z,5.53
2022-10-16T22:44:12.531Z,5.57
2022-10-16T22:46:41.449Z,5.28
2022-10-16T22:49:09.965Z,5.55
2022-10-16T22:51:39.435Z,5.07
2022-10-16T22:54:08.358Z,5.88
2022-10-16T22:56:39.351Z,5.32
2022-10-16T22:59:10.589Z,5.65
2022-10-16T23:01:42.099Z,6.07
2022-10-16T23:04:18.620Z,5.60
2022-10-16T23:06:49.282Z,6.25
2022-10-16T23:09:19.281Z,6.00
2022-10-16T23:11:52.231Z,5.97
2022-10-16T23:14:21.985Z,6.47
2022-10-16T23:16:50.787Z,6.70
2022-10-16T23:19:19.186Z,6.05
2022-10-16T23:21:48.304Z,5.82
2022-10-16T23:24:16.593Z,6.40
2022-10-16T23:26:44.839Z,6.82
2022-10-16T23:29:14.034Z,6.32
2022-10-16T23:31:43.830Z,6.55
2022-10-16T23:34:12.808Z,6.13
2022-10-16T23:36:44.719Z,5.85
2022-10-16T23:39:12.925Z,7.07
2022-10-16T23:41:42.665Z,6.60
2022-10-16T23:44:12.008Z,6.93
2022-10-16T23:46:41.513Z,7.18
2022-10-16T23:49:10.352Z,6.85
2022-10-16T23:51:39.621Z,6.47
2022-10-16T23:54:09.235Z,6.97
2022-10-16T23:56:37.672Z,6.22
2022-10-16T23:59:06.765Z,6.97
